createdAt,value
2023-04-27T00:00:55.027Z,0.00
2023-04-27T00:01:55.028Z,0.00
2023-04-27T00:02:55.176Z,0.00
2023-04-27T00:03:55.252Z,0.00
2023-04-27T00:04:55.279Z,0.00
2023-04-27T00:05:55.175Z,0.00
2023-04-27T00:06:55.006Z,0.00
2023-04-27T00:07:54.969Z,0.00
2023-04-27T00:08:54.953Z,0.00
2023-04-27T00:09:54.958Z,0.00
2023-04-27T00:10:54.944Z,0.00
2023-04-27T00:11:54.937Z,0.00
2023-04-27T00:12:54.921Z,0.00
2023-04-27T00:13:54.912Z,0.00
2023-04-27T00:14:54.944Z,0.00
2023-04-27T00:15:54.934Z,0.00
2023-04-27T00:16:54.927Z,0.00
2023-04-27T00:17:54.940Z,0.00
2023-04-27T00:18:54.948Z,0.00
2023-04-27T00:19:54.855Z,0.00
2023-04-27T00:20:54.847Z,0.00
2023-04-27T00:21:54.841Z,0.00
2023-04-27T00:22:54.823Z,0.00
2023-04-27T00:23:54.817Z,0.00
2023-04-27T00:24:54.798Z,0.00
2023-04-27T00:25:54.804Z,0.00
2023-04-27T00:26:54.798Z,0.00
2023-04-27T00:27:54.782Z,0.00
2023-04-27T00:28:54.775Z,0.00
2023-04-27T00:29:54.766Z,0.00
2023-04-27T00:30:54.774Z,0.00
2023-04-27T00:31:54.775Z,0.00
2023-04-27T00:32:54.761Z,0.00
2023-04-27T00:33:54.730Z,0.00
2023-04-27T00:34:54.726Z,0.00
2023-04-27T00:35:54.717Z,0.00
2023-04-27T00:36:54.693Z,0.00
2023-04-27T00:37:54.685Z,0.00
2023-04-27T00:38:54.677Z,0.00
2023-04-27T00:39:54.666Z,0.00
2023-04-27T00:40:54.668Z,0.00
2023-04-27T00:41:54.652Z,0.00
2023-04-27T00:42:54.639Z,0.00
2023-04-27T00:43:54.636Z,0.00
2023-04-27T00:44:54.622Z,0.00
2023-04-27T00:45:54.676Z,0.00
2023-04-27T00:46:54.612Z,0.00
2023-04-27T00:47:54.647Z,0.00
2023-04-27T00:48:54.582Z,0.00
2023-04-27T00:49:54.582Z,0.00
2023-04-27T00:50:54.568Z,0.00
2023-04-27T00:51:54.568Z,0.00
2023-04-27T00:52:54.567Z,0.00
2023-04-27T00:53:54.554Z,0.00
2023-04-27T00:54:54.533Z,0.00
2023-04-27T00:55:54.530Z,0.00
2023-04-27T00:56:54.527Z,0.00
2023-04-27T00:57:54.505Z,0.00
2023-04-27T00:58:54.496Z,0.00
2023-04-27T00:59:54.499Z,0.00
2023-04-27T01:00:54.485Z,0.00
2023-04-27T01:01:54.465Z,0.00
2023-04-27T01:02:54.524Z,0.00
2023-04-27T01:03:54.599Z,0.00
2023-04-27T01:04:54.444Z,0.00
2023-04-27T01:05:54.450Z,0.00
2023-04-27T01:06:54.413Z,0.00
2023-04-27T01:07:54.438Z,0.00
2023-04-27T01:08:54.401Z,0.00
2023-04-27T01:09:54.400Z,0.00
2023-04-27T01:10:54.390Z,0.00
2023-04-27T01:11:54.366Z,0.00
2023-04-27T01:12:54.358Z,0.00
2023-04-27T01:13:54.343Z,0.00
2023-04-27T01:14:54.355Z,0.00
2023-04-27T01:15:54.342Z,0.00
2023-04-27T01:16:54.333Z,0.00
2023-04-27T01:17:54.394Z,0.00
2023-04-27T01:18:54.301Z,0.00
2023-04-27T01:19:54.294Z,0.00
2023-04-27T01:20:54.297Z,0.00
2023-04-27T01:21:54.272Z,0.00
2023-04-27T01:22:54.265Z,0.00
2023-04-27T01:23:54.258Z,0.00
2023-04-27T01:24:54.251Z,0.00
2023-04-27T01:25:54.269Z,0.00
2023-04-27T01:26:54.233Z,0.00
2023-04-27T01:27:54.247Z,0.00
2023-04-27T01:28:54.212Z,0.00
2023-04-27T01:29:54.206Z,0.00
2023-04-27T01:30:54.238Z,0.00
2023-04-27T01:31:54.185Z,0.00
2023-04-27T01:32:54.203Z,0.00
2023-04-27T01:33:54.165Z,0.00
2023-04-27T01:34:54.182Z,0.00
2023-04-27T01:35:54.163Z,0.00
2023-04-27T01:36:54.144Z,0.00
2023-04-27T01:37:54.131Z,0.00
2023-04-27T01:38:54.121Z,0.00
2023-04-27T01:39:54.126Z,0.00
2023-04-27T01:40:54.116Z,0.00
2023-04-27T01:41:55.193Z,0.00
2023-04-27T01:42:54.093Z,0.00
2023-04-27T01:43:54.082Z,0.00
2023-04-27T01:44:54.067Z,0.00
2023-04-27T01:45:54.210Z,0.00
2023-04-27T01:46:54.059Z,0.00
2023-04-27T01:47:54.060Z,0.00
2023-04-27T01:48:54.027Z,0.00
2023-04-27T01:49:54.018Z,0.00
2023-04-27T01:50:54.020Z,0.00
2023-04-27T01:51:54.009Z,0.00
2023-04-27T01:52:53.996Z,0.00
2023-04-27T01:53:53.979Z,0.00
2023-04-27T01:54:53.971Z,0.00
2023-04-27T01:55:53.968Z,0.00
2023-04-27T01:56:53.952Z,0.00
2023-04-27T01:57:53.943Z,0.00
2023-04-27T01:58:53.933Z,0.00
2023-04-27T01:59:53.923Z,0.00
2023-04-27T02:00:53.932Z,0.00
2023-04-27T02:01:53.957Z,0.00
2023-04-27T02:02:54.007Z,0.00
2023-04-27T02:03:53.996Z,0.00
2023-04-27T02:04:53.921Z,0.00
2023-04-27T02:05:53.882Z,0.00
2023-04-27T02:06:53.861Z,0.00
2023-04-27T02:07:53.847Z,0.00
2023-04-27T02:08:53.844Z,0.00
2023-04-27T02:09:53.823Z,0.00
2023-04-27T02:10:54.829Z,0.00
2023-04-27T02:11:53.811Z,0.00
2023-04-27T02:12:53.808Z,0.00
2023-04-27T02:13:53.793Z,0.00
2023-04-27T02:14:53.780Z,0.00
2023-04-27T02:15:53.797Z,0.00
2023-04-27T02:16:53.772Z,0.00
2023-04-27T02:17:53.856Z,0.00
2023-04-27T02:18:53.745Z,0.00
2023-04-27T02:19:53.731Z,0.00
2023-04-27T02:20:53.737Z,0.00
2023-04-27T02:21:53.709Z,0.00
2023-04-27T02:22:54.697Z,0.00
2023-04-27T02:23:53.693Z,0.00
2023-04-27T02:24:53.688Z,0.00
2023-04-27T02:25:53.673Z,0.00
2023-04-27T02:26:53.675Z,0.00
2023-04-27T02:27:53.656Z,0.00
2023-04-27T02:28:53.643Z,0.00
2023-04-27T02:29:53.635Z,0.00
2023-04-27T02:30:53.635Z,0.00
2023-04-27T02:31:53.712Z,0.00
2023-04-27T02:32:53.616Z,0.00
2023-04-27T02:33:53.595Z,0.00
2023-04-27T02:34:53.590Z,0.00
2023-04-27T02:35:53.582Z,0.00
2023-04-27T02:36:53.586Z,0.00
2023-04-27T02:37:53.567Z,0.00
2023-04-27T02:38:53.557Z,0.00
2023-04-27T02:39:53.545Z,0.00
2023-04-27T02:40:53.535Z,0.00
2023-04-27T02:41:53.542Z,0.00
2023-04-27T02:42:53.520Z,0.00
2023-04-27T02:43:53.509Z,0.00
2023-04-27T02:44:53.496Z,0.00
2023-04-27T02:45:53.486Z,0.00
2023-04-27T02:46:53.549Z,0.00
2023-04-27T02:47:53.497Z,0.00
2023-04-27T02:48:53.455Z,0.00
2023-04-27T02:49:53.465Z,0.00
2023-04-27T02:50:53.439Z,0.00
2023-04-27T02:51:53.442Z,0.00
2023-04-27T02:52:53.423Z,0.00
2023-04-27T02:53:53.415Z,0.00
2023-04-27T02:54:53.402Z,0.00
2023-04-27T02:55:53.386Z,0.00
2023-04-27T02:56:53.409Z,0.00
2023-04-27T02:57:53.379Z,0.00
2023-04-27T02:58:53.359Z,0.00
2023-04-27T02:59:53.355Z,0.00
2023-04-27T03:00:53.358Z,0.00
2023-04-27T03:01:53.343Z,0.00
2023-04-27T03:02:53.414Z,0.00
2023-04-27T03:03:53.458Z,0.00
2023-04-27T03:04:53.305Z,0.00
2023-04-27T03:05:53.297Z,0.00
2023-04-27T03:06:53.305Z,0.00
2023-04-27T03:07:53.321Z,0.00
2023-04-27T03:08:53.269Z,0.00
2023-04-27T03:09:53.281Z,0.00
2023-04-27T03:10:53.247Z,0.00
2023-04-27T03:11:53.257Z,0.00
2023-04-27T03:12:53.235Z,0.00
2023-04-27T03:13:53.223Z,0.00
2023-04-27T03:14:53.214Z,0.00
2023-04-27T03:15:53.212Z,0.00
2023-04-27T03:16:53.356Z,0.00
2023-04-27T03:17:53.217Z,0.00
2023-04-27T03:18:53.174Z,0.00
2023-04-27T03:19:53.177Z,0.00
2023-04-27T03:20:53.152Z,0.00
2023-04-27T03:21:53.170Z,0.00
2023-04-27T03:22:53.143Z,0.00
2023-04-27T03:23:53.133Z,0.00
2023-04-27T03:24:53.128Z,0.00
2023-04-27T03:25:53.114Z,0.00
2023-04-27T03:26:53.153Z,0.00
2023-04-27T03:27:53.102Z,0.00
2023-04-27T03:28:53.109Z,0.00
2023-04-27T03:29:53.082Z,0.00
2023-04-27T03:30:53.067Z,0.00
2023-04-27T03:31:53.124Z,0.00
2023-04-27T03:32:53.062Z,0.00
2023-04-27T03:33:53.048Z,0.00
2023-04-27T03:34:53.028Z,0.00
2023-04-27T03:35:53.021Z,0.00
2023-04-27T03:36:53.020Z,0.00
2023-04-27T03:37:53.013Z,0.00
2023-04-27T03:38:52.986Z,0.00
2023-04-27T03:39:52.984Z,0.00
2023-04-27T03:40:52.972Z,0.00
2023-04-27T03:41:52.987Z,0.00
2023-04-27T03:42:52.958Z,0.00
2023-04-27T03:43:52.949Z,0.00
2023-04-27T03:44:52.946Z,0.00
2023-04-27T03:45:53.040Z,0.00
2023-04-27T03:46:52.940Z,0.00
2023-04-27T03:47:52.969Z,0.00
2023-04-27T03:48:52.910Z,0.00
2023-04-27T03:49:52.921Z,0.00
2023-04-27T03:50:52.898Z,0.00
2023-04-27T03:51:52.892Z,0.00
2023-04-27T03:52:52.871Z,0.00
2023-04-27T03:53:52.893Z,0.00
2023-04-27T03:54:52.854Z,0.00
2023-04-27T03:55:52.852Z,0.00
2023-04-27T03:56:52.842Z,0.00
2023-04-27T03:57:52.828Z,0.00
2023-04-27T03:58:52.829Z,0.00
2023-04-27T03:59:52.801Z,0.00
2023-04-27T04:00:52.798Z,0.00
2023-04-27T04:01:52.807Z,0.00
2023-04-27T04:02:53.076Z,0.00
2023-04-27T04:03:52.843Z,0.00
2023-04-27T04:04:52.979Z,0.00
2023-04-27T04:05:52.750Z,0.00
2023-04-27T04:06:52.749Z,0.00
2023-04-27T04:07:52.733Z,0.00
2023-04-27T04:08:52.730Z,0.00
2023-04-27T04:09:52.719Z,0.00
2023-04-27T04:10:52.706Z,0.00
2023-04-27T04:11:52.707Z,0.00
2023-04-27T04:12:52.691Z,0.00
2023-04-27T04:13:52.697Z,0.00
2023-04-27T04:14:52.667Z,0.00
2023-04-27T04:15:52.722Z,5.62
2023-04-27T04:16:52.670Z,5.62
2023-04-27T04:17:52.700Z,5.62
2023-04-27T04:18:52.631Z,5.62
2023-04-27T04:19:52.617Z,5.62
2023-04-27T04:20:52.616Z,5.62
2023-04-27T04:21:52.613Z,5.62
2023-04-27T04:22:52.597Z,5.62
2023-04-27T04:23:52.598Z,5.62
2023-04-27T04:24:52.584Z,5.62
2023-04-27T04:25:52.569Z,5.62
2023-04-27T04:26:52.573Z,11.25
2023-04-27T04:27:52.549Z,11.25
2023-04-27T04:28:52.547Z,11.25
2023-04-27T04:29:52.525Z,11.25
2023-04-27T04:30:52.571Z,11.25
2023-04-27T04:31:52.733Z,11.25
2023-04-27T04:32:52.552Z,11.25
2023-04-27T04:33:52.494Z,11.25
2023-04-27T04:34:52.489Z,11.25
2023-04-27T04:35:52.511Z,11.25
2023-04-27T04:36:52.498Z,11.25
2023-04-27T04:37:52.460Z,11.25
2023-04-27T04:38:52.468Z,16.88
2023-04-27T04:39:52.448Z,16.88
2023-04-27T04:40:52.431Z,16.88
2023-04-27T04:41:52.436Z,22.50
2023-04-27T04:42:52.412Z,22.50
2023-04-27T04:43:52.413Z,22.50
2023-04-27T04:44:52.436Z,22.50
2023-04-27T04:45:52.383Z,28.12
2023-04-27T04:46:52.439Z,28.12
2023-04-27T04:47:52.388Z,28.12
2023-04-27T04:48:54.495Z,33.75
2023-04-27T04:49:52.353Z,33.75
2023-04-27T04:50:52.339Z,33.75
2023-04-27T04:51:52.342Z,33.75
2023-04-27T04:52:52.325Z,39.38
2023-04-27T04:53:52.308Z,39.38
2023-04-27T04:54:52.345Z,39.38
2023-04-27T04:55:52.296Z,45.00
2023-04-27T04:56:52.300Z,45.00
2023-04-27T04:57:52.285Z,45.00
2023-04-27T04:58:52.268Z,50.62
2023-04-27T04:59:52.265Z,50.62
2023-04-27T05:00:52.256Z,50.62
2023-04-27T05:01:52.266Z,56.25
2023-04-27T05:02:52.301Z,56.25
2023-04-27T05:03:52.363Z,67.50
2023-04-27T05:04:52.489Z,78.75
2023-04-27T05:05:52.220Z,78.75
2023-04-27T05:06:52.212Z,84.38
2023-04-27T05:07:52.191Z,73.12
2023-04-27T05:08:52.194Z,67.50
2023-04-27T05:09:52.183Z,61.88
2023-04-27T05:10:52.164Z,56.25
2023-04-27T05:11:52.197Z,56.25
2023-04-27T05:12:52.151Z,56.25
2023-04-27T05:13:52.143Z,56.25
2023-04-27T05:14:52.128Z,56.25
2023-04-27T05:15:52.192Z,56.25
2023-04-27T05:16:52.116Z,56.25
2023-04-27T05:17:52.124Z,56.25
2023-04-27T05:18:52.097Z,61.88
2023-04-27T05:19:52.100Z,61.88
2023-04-27T05:20:52.075Z,61.88
2023-04-27T05:21:52.081Z,67.50
2023-04-27T05:22:52.061Z,61.88
2023-04-27T05:23:52.050Z,61.88
2023-04-27T05:24:52.042Z,61.88
2023-04-27T05:25:52.032Z,61.88
2023-04-27T05:26:52.042Z,61.88
2023-04-27T05:27:52.017Z,67.50
2023-04-27T05:28:52.006Z,67.50
2023-04-27T05:29:52.107Z,67.50
2023-04-27T05:30:51.995Z,67.50
2023-04-27T05:31:52.057Z,67.50
2023-04-27T05:32:51.991Z,73.12
2023-04-27T05:33:51.970Z,73.12
2023-04-27T05:34:51.960Z,78.75
2023-04-27T05:35:51.947Z,78.75
2023-04-27T05:36:51.948Z,84.38
2023-04-27T05:37:51.932Z,84.38
2023-04-27T05:38:51.922Z,84.38
2023-04-27T05:39:51.910Z,78.75
2023-04-27T05:40:52.514Z,78.75
2023-04-27T05:41:51.903Z,78.75
2023-04-27T05:42:51.893Z,78.75
2023-04-27T05:43:51.884Z,78.75
2023-04-27T05:44:51.864Z,78.75
2023-04-27T05:45:51.926Z,73.12
2023-04-27T05:46:51.870Z,73.12
2023-04-27T05:47:51.865Z,73.12
2023-04-27T05:48:51.831Z,73.12
2023-04-27T05:49:51.824Z,73.12
2023-04-27T05:50:51.810Z,73.12
2023-04-27T05:51:51.818Z,67.50
2023-04-27T05:52:51.795Z,67.50
2023-04-27T05:53:51.784Z,67.50
2023-04-27T05:54:51.792Z,67.50
2023-04-27T05:55:51.767Z,67.50
2023-04-27T05:56:51.784Z,67.50
2023-04-27T05:57:57.267Z,67.50
2023-04-27T05:58:53.739Z,73.12
2023-04-27T05:59:51.734Z,73.12
2023-04-27T06:00:51.723Z,73.12
2023-04-27T06:01:51.738Z,73.12
2023-04-27T06:02:51.844Z,73.12
2023-04-27T06:03:51.772Z,73.12
2023-04-27T06:04:51.719Z,78.75
2023-04-27T06:05:51.678Z,78.75
2023-04-27T06:06:51.678Z,84.38
2023-04-27T06:07:51.675Z,90.00
2023-04-27T06:08:51.652Z,90.00
2023-04-27T06:09:51.646Z,90.00
2023-04-27T06:10:51.630Z,95.62
2023-04-27T06:11:51.628Z,95.62
2023-04-27T06:12:51.634Z,101.25
2023-04-27T06:13:51.612Z,101.25
2023-04-27T06:14:51.600Z,106.88
2023-04-27T06:15:51.637Z,106.88
2023-04-27T06:16:51.586Z,112.50
2023-04-27T06:17:51.644Z,118.12
2023-04-27T06:18:51.557Z,123.75
2023-04-27T06:19:51.559Z,146.25
2023-04-27T06:20:51.566Z,123.75
2023-04-27T06:21:51.534Z,129.38
2023-04-27T06:22:51.539Z,135.00
2023-04-27T06:23:51.514Z,151.88
2023-04-27T06:24:51.504Z,140.62
2023-04-27T06:25:51.523Z,140.62
2023-04-27T06:26:51.487Z,135.00
2023-04-27T06:27:51.500Z,135.00
2023-04-27T06:28:51.472Z,140.62
2023-04-27T06:29:51.461Z,146.25
2023-04-27T06:30:51.459Z,146.25
2023-04-27T06:31:51.476Z,151.88
2023-04-27T06:32:52.460Z,393.75
2023-04-27T06:33:51.471Z,174.38
2023-04-27T06:34:51.475Z,174.38
2023-04-27T06:35:51.411Z,174.38
2023-04-27T06:36:51.416Z,236.25
2023-04-27T06:37:51.395Z,180.00
2023-04-27T06:38:51.376Z,174.38
2023-04-27T06:39:51.394Z,180.00
2023-04-27T06:42:17.218Z,174.38
2023-04-27T06:43:17.214Z,168.75
2023-04-27T06:44:17.414Z,168.75
2023-04-27T06:45:17.194Z,174.38
2023-04-27T06:46:17.199Z,163.12
2023-04-27T06:47:17.201Z,163.12
2023-04-27T06:48:17.265Z,157.50
2023-04-27T06:49:17.161Z,168.75
2023-04-27T06:50:17.169Z,168.75
2023-04-27T06:51:18.247Z,168.75
2023-04-27T06:52:18.266Z,174.38
2023-04-27T06:53:18.228Z,174.38
2023-04-27T06:54:19.225Z,174.38
2023-04-27T06:55:18.221Z,174.38
2023-04-27T06:56:18.210Z,174.38
2023-04-27T06:57:18.204Z,174.38
2023-04-27T06:58:18.191Z,185.62
2023-04-27T06:59:18.349Z,208.12
2023-04-27T07:00:18.176Z,185.62
2023-04-27T07:01:18.196Z,185.62
2023-04-27T07:02:18.188Z,185.62
2023-04-27T07:03:18.276Z,185.62
2023-04-27T07:04:18.242Z,180.00
2023-04-27T07:05:18.124Z,180.00
2023-04-27T07:06:18.120Z,180.00
2023-04-27T07:07:18.123Z,174.38
2023-04-27T07:08:18.099Z,174.38
2023-04-27T07:09:26.926Z,180.00
2023-04-27T07:10:20.077Z,185.62
2023-04-27T07:11:18.070Z,185.62
2023-04-27T07:12:18.135Z,191.25
2023-04-27T07:13:18.047Z,191.25
2023-04-27T07:14:18.039Z,191.25
2023-04-27T07:15:18.030Z,196.88
2023-04-27T07:16:18.050Z,196.88
2023-04-27T07:17:18.111Z,196.88
2023-04-27T07:18:17.996Z,213.75
2023-04-27T07:19:18.006Z,230.62
2023-04-27T07:20:18.053Z,213.75
2023-04-27T07:21:17.994Z,213.75
2023-04-27T07:22:18.037Z,213.75
2023-04-27T07:23:17.947Z,219.38
2023-04-27T07:24:17.939Z,208.12
2023-04-27T07:25:17.933Z,208.12
2023-04-27T07:26:17.926Z,202.50
2023-04-27T07:27:17.923Z,213.75
2023-04-27T07:28:17.914Z,225.00
2023-04-27T07:29:26.438Z,225.00
2023-04-27T07:30:19.883Z,236.25
2023-04-27T07:31:17.906Z,236.25
2023-04-27T07:32:17.964Z,236.25
2023-04-27T07:33:17.850Z,241.88
2023-04-27T07:34:17.845Z,230.62
2023-04-27T07:35:17.843Z,225.00
2023-04-27T07:36:17.826Z,219.38
2023-04-27T07:37:17.829Z,219.38
2023-04-27T07:38:17.801Z,213.75
2023-04-27T07:39:17.795Z,219.38
2023-04-27T07:40:17.795Z,219.38
2023-04-27T07:41:17.791Z,225.00
2023-04-27T07:42:17.779Z,225.00
2023-04-27T07:43:17.759Z,219.38
2023-04-27T07:44:17.747Z,219.38
2023-04-27T07:45:17.736Z,219.38
2023-04-27T07:46:17.794Z,219.38
2023-04-27T07:47:17.724Z,225.00
2023-04-27T07:48:17.750Z,225.00
2023-04-27T07:49:17.690Z,225.00
2023-04-27T07:50:17.698Z,230.62
2023-04-27T07:51:17.672Z,236.25
2023-04-27T07:52:17.687Z,236.25
2023-04-27T07:53:17.698Z,247.50
2023-04-27T07:54:17.648Z,270.00
2023-04-27T07:55:17.632Z,258.75
2023-04-27T07:56:17.629Z,264.38
2023-04-27T07:57:17.623Z,286.88
2023-04-27T07:58:17.605Z,264.38
2023-04-27T07:59:17.611Z,275.62
2023-04-27T08:00:17.596Z,303.75
2023-04-27T08:01:19.509Z,270.00
2023-04-27T08:02:19.599Z,270.00
2023-04-27T08:03:18.781Z,270.00
2023-04-27T08:04:17.841Z,264.38
2023-04-27T08:05:17.751Z,270.00
2023-04-27T08:06:18.116Z,275.62
2023-04-27T08:07:17.911Z,309.38
2023-04-27T08:08:18.033Z,292.50
2023-04-27T08:09:17.547Z,309.38
2023-04-27T08:10:17.501Z,320.62
2023-04-27T08:11:17.490Z,320.62
2023-04-27T08:12:17.489Z,309.38
2023-04-27T08:13:17.471Z,303.75
2023-04-27T08:14:17.453Z,286.88
2023-04-27T08:15:18.456Z,286.88
2023-04-27T08:16:17.484Z,286.88
2023-04-27T08:17:17.459Z,292.50
2023-04-27T08:18:17.451Z,292.50
2023-04-27T08:19:17.408Z,298.12
2023-04-27T08:20:17.399Z,320.62
2023-04-27T08:21:17.392Z,343.12
2023-04-27T08:22:17.377Z,331.88
2023-04-27T08:23:17.377Z,354.38
2023-04-27T08:24:17.368Z,371.25
2023-04-27T08:25:17.366Z,348.75
2023-04-27T08:26:17.355Z,337.50
2023-04-27T08:27:17.330Z,343.12
2023-04-27T08:28:17.328Z,343.12
2023-04-27T08:29:27.221Z,371.25
2023-04-27T08:30:19.300Z,371.25
2023-04-27T08:31:17.295Z,382.50
2023-04-27T08:32:17.297Z,360.00
2023-04-27T08:33:17.295Z,376.88
2023-04-27T08:34:17.264Z,348.75
2023-04-27T08:35:17.262Z,326.25
2023-04-27T08:36:17.246Z,326.25
2023-04-27T08:37:17.239Z,315.00
2023-04-27T08:38:17.254Z,348.75
2023-04-27T08:39:17.214Z,343.12
2023-04-27T08:40:17.220Z,365.62
2023-04-27T08:41:21.824Z,382.50
2023-04-27T08:42:18.192Z,354.38
2023-04-27T08:43:17.190Z,388.12
2023-04-27T08:44:17.184Z,337.50
2023-04-27T08:45:17.161Z,326.25
2023-04-27T08:46:17.185Z,315.00
2023-04-27T08:47:18.834Z,320.62
2023-04-27T08:48:17.189Z,298.12
2023-04-27T08:49:17.509Z,303.75
2023-04-27T08:50:17.116Z,298.12
2023-04-27T08:51:17.095Z,292.50
2023-04-27T08:52:18.102Z,286.88
2023-04-27T08:53:17.377Z,286.88
2023-04-27T08:54:17.166Z,292.50
2023-04-27T08:55:17.072Z,303.75
2023-04-27T08:56:17.054Z,315.00
2023-04-27T08:57:17.164Z,298.12
2023-04-27T08:58:17.051Z,320.62
2023-04-27T08:59:17.549Z,326.25
2023-04-27T09:00:17.010Z,320.62
2023-04-27T09:01:17.068Z,309.38
2023-04-27T09:02:17.075Z,270.00
2023-04-27T09:03:17.090Z,258.75
2023-04-27T09:04:17.151Z,253.12
2023-04-27T09:05:16.987Z,241.88
2023-04-27T09:06:17.116Z,241.88
2023-04-27T09:07:16.947Z,247.50
2023-04-27T09:08:16.938Z,253.12
2023-04-27T09:09:16.928Z,247.50
2023-04-27T09:10:16.906Z,236.25
2023-04-27T09:11:16.896Z,225.00
2023-04-27T09:12:16.889Z,225.00
2023-04-27T09:13:16.924Z,219.38
2023-04-27T09:14:16.878Z,219.38
2023-04-27T09:15:16.861Z,225.00
2023-04-27T09:16:16.962Z,225.00
2023-04-27T09:17:16.863Z,225.00
2023-04-27T09:18:16.831Z,230.62
2023-04-27T09:19:16.821Z,236.25
2023-04-27T09:20:16.807Z,230.62
2023-04-27T09:21:16.803Z,230.62
2023-04-27T09:22:16.809Z,230.62
2023-04-27T09:23:16.788Z,230.62
2023-04-27T09:24:16.771Z,230.62
2023-04-27T09:25:16.768Z,219.38
2023-04-27T09:26:16.753Z,213.75
2023-04-27T09:27:16.759Z,202.50
2023-04-27T09:28:16.735Z,191.25
2023-04-27T09:29:16.729Z,180.00
2023-04-27T09:30:16.717Z,174.38
2023-04-27T09:31:16.711Z,180.00
2023-04-27T09:32:17.165Z,191.25
2023-04-27T09:33:17.697Z,202.50
2023-04-27T09:34:16.677Z,213.75
2023-04-27T09:35:16.671Z,225.00
2023-04-27T09:36:16.655Z,236.25
2023-04-27T09:37:16.666Z,241.88
2023-04-27T09:38:17.060Z,236.25
2023-04-27T09:39:17.629Z,230.62
2023-04-27T09:40:16.626Z,230.62
2023-04-27T09:41:16.612Z,236.25
2023-04-27T09:42:16.613Z,230.62
2023-04-27T09:43:16.602Z,230.62
2023-04-27T09:44:16.584Z,230.62
2023-04-27T09:45:16.587Z,236.25
2023-04-27T09:46:16.577Z,236.25
2023-04-27T09:47:16.560Z,241.88
2023-04-27T09:48:16.544Z,258.75
2023-04-27T09:49:16.530Z,270.00
2023-04-27T09:50:16.518Z,270.00
2023-04-27T09:51:16.514Z,275.62
2023-04-27T09:52:16.516Z,281.25
2023-04-27T09:53:16.502Z,292.50
2023-04-27T09:54:16.490Z,298.12
2023-04-27T09:55:16.472Z,309.38
2023-04-27T09:56:16.555Z,320.62
2023-04-27T09:57:16.465Z,337.50
2023-04-27T09:58:16.449Z,354.38
2023-04-27T09:59:17.429Z,365.62
2023-04-27T10:00:16.420Z,376.88
2023-04-27T10:01:16.464Z,371.25
2023-04-27T10:02:24.731Z,348.75
2023-04-27T10:03:18.453Z,326.25
2023-04-27T10:04:17.583Z,320.62
2023-04-27T10:05:16.415Z,320.62
2023-04-27T10:06:16.368Z,326.25
2023-04-27T10:07:16.370Z,337.50
2023-04-27T10:08:16.349Z,348.75
2023-04-27T10:09:16.358Z,360.00
2023-04-27T10:10:16.336Z,382.50
2023-04-27T10:11:16.346Z,393.75
2023-04-27T10:12:16.331Z,399.38
2023-04-27T10:13:16.295Z,388.12
2023-04-27T10:14:16.290Z,371.25
2023-04-27T10:15:16.298Z,354.38
2023-04-27T10:16:16.362Z,343.12
2023-04-27T10:17:16.294Z,337.50
2023-04-27T10:18:16.287Z,326.25
2023-04-27T10:19:16.335Z,315.00
2023-04-27T10:20:16.242Z,320.62
2023-04-27T10:21:16.209Z,326.25
2023-04-27T10:22:17.202Z,348.75
2023-04-27T10:23:16.201Z,343.12
2023-04-27T10:24:16.184Z,360.00
2023-04-27T10:25:16.177Z,354.38
2023-04-27T10:26:16.164Z,343.12
2023-04-27T10:27:16.186Z,343.12
2023-04-27T10:28:16.150Z,343.12
2023-04-27T10:29:16.333Z,354.38
2023-04-27T10:30:16.120Z,348.75
2023-04-27T10:31:16.161Z,348.75
2023-04-27T10:32:16.113Z,343.12
2023-04-27T10:33:16.098Z,331.88
2023-04-27T10:34:16.080Z,331.88
2023-04-27T10:35:16.072Z,388.12
2023-04-27T10:36:16.072Z,1243.12
2023-04-27T10:37:16.061Z,1096.88
2023-04-27T10:38:16.042Z,928.12
2023-04-27T10:39:16.588Z,1063.12
2023-04-27T10:40:16.017Z,1006.88
2023-04-27T10:41:17.018Z,1186.88
2023-04-27T10:42:16.007Z,1276.88
2023-04-27T10:43:15.991Z,1338.75
2023-04-27T10:44:15.976Z,1051.88
2023-04-27T10:45:15.972Z,1271.25
2023-04-27T10:46:16.373Z,1215.00
2023-04-27T10:47:15.958Z,1170.00
2023-04-27T10:48:16.104Z,1158.75
2023-04-27T10:49:15.936Z,1175.62
2023-04-27T10:50:15.917Z,1220.62
2023-04-27T10:51:15.925Z,810.00
2023-04-27T10:52:15.976Z,866.25
2023-04-27T10:53:15.898Z,1001.25
2023-04-27T10:54:15.886Z,736.88
2023-04-27T10:55:15.867Z,461.25
2023-04-27T10:56:15.903Z,815.62
2023-04-27T10:57:15.858Z,939.38
2023-04-27T10:58:15.840Z,1181.25
2023-04-27T10:59:16.008Z,1085.62
2023-04-27T11:00:16.557Z,1192.50
2023-04-27T11:01:16.851Z,1254.38
2023-04-27T11:02:15.843Z,1220.62
2023-04-27T11:03:15.947Z,1383.75
2023-04-27T11:04:16.023Z,461.25
2023-04-27T11:05:15.837Z,1276.88
2023-04-27T11:06:15.748Z,770.62
2023-04-27T11:07:15.790Z,1248.75
2023-04-27T11:08:15.746Z,1209.38
2023-04-27T11:09:15.727Z,978.75
2023-04-27T11:10:15.759Z,1164.38
2023-04-27T11:11:16.703Z,1141.88
2023-04-27T11:12:16.697Z,658.12
2023-04-27T11:13:15.734Z,1310.62
2023-04-27T11:14:15.949Z,1226.25
2023-04-27T11:15:15.665Z,1226.25
2023-04-27T11:16:15.697Z,776.25
2023-04-27T11:17:16.654Z,1023.75
2023-04-27T11:18:15.665Z,646.88
2023-04-27T11:19:15.925Z,950.62
2023-04-27T11:20:15.682Z,1181.25
2023-04-27T11:21:15.618Z,1192.50
2023-04-27T11:22:15.602Z,444.38
2023-04-27T11:23:15.577Z,399.38
2023-04-27T11:24:15.756Z,534.38
2023-04-27T11:25:15.556Z,450.00
2023-04-27T11:26:15.545Z,1125.00
2023-04-27T11:27:15.549Z,855.00
2023-04-27T11:28:15.540Z,511.88
2023-04-27T11:29:15.721Z,877.50
2023-04-27T11:30:15.567Z,866.25
2023-04-27T11:31:15.573Z,438.75
2023-04-27T11:32:15.497Z,388.12
2023-04-27T11:33:15.488Z,736.88
2023-04-27T11:34:16.271Z,523.12
2023-04-27T11:35:16.470Z,860.62
2023-04-27T11:36:15.465Z,1260.00
2023-04-27T11:37:18.377Z,1260.00
2023-04-27T11:38:16.434Z,1299.38
2023-04-27T11:39:15.644Z,703.12
2023-04-27T11:40:15.430Z,1046.25
2023-04-27T11:41:15.404Z,1012.50
2023-04-27T11:42:15.414Z,810.00
2023-04-27T11:43:15.414Z,1704.38
2023-04-27T11:44:15.377Z,1642.50
2023-04-27T11:45:15.369Z,478.12
2023-04-27T11:46:15.483Z,1164.38
2023-04-27T11:47:16.892Z,1485.00
2023-04-27T11:48:15.335Z,1440.00
2023-04-27T11:49:15.598Z,1344.38
2023-04-27T11:50:15.375Z,1468.12
2023-04-27T11:51:15.302Z,1513.12
2023-04-27T11:52:15.305Z,995.62
2023-04-27T11:53:17.462Z,1063.12
2023-04-27T11:54:15.477Z,472.50
2023-04-27T11:55:15.277Z,376.88
2023-04-27T11:56:15.279Z,388.12
2023-04-27T11:57:15.257Z,753.75
2023-04-27T11:58:15.237Z,798.75
2023-04-27T11:59:15.326Z,416.25
2023-04-27T12:00:15.279Z,393.75
2023-04-27T12:01:18.123Z,376.88
2023-04-27T12:02:16.247Z,326.25
2023-04-27T12:03:15.358Z,562.50
2023-04-27T12:04:15.528Z,331.88
2023-04-27T12:05:15.487Z,343.12
2023-04-27T12:06:31.753Z,416.25
2023-04-27T12:07:17.163Z,343.12
2023-04-27T12:08:15.135Z,315.00
2023-04-27T12:09:15.124Z,309.38
2023-04-27T12:10:15.114Z,298.12
2023-04-27T12:11:15.101Z,303.75
2023-04-27T12:12:15.085Z,309.38
2023-04-27T12:13:15.086Z,303.75
2023-04-27T12:14:15.362Z,303.75
2023-04-27T12:15:15.061Z,331.88
2023-04-27T12:16:15.123Z,360.00
2023-04-27T12:17:15.062Z,343.12
2023-04-27T12:18:15.118Z,303.75
2023-04-27T12:19:15.041Z,331.88
2023-04-27T12:20:15.016Z,326.25
2023-04-27T12:21:14.996Z,495.00
2023-04-27T12:22:14.980Z,354.38
2023-04-27T12:23:14.985Z,360.00
2023-04-27T12:24:15.145Z,382.50
2023-04-27T12:25:14.954Z,376.88
2023-04-27T12:26:15.314Z,331.88
2023-04-27T12:27:15.936Z,348.75
2023-04-27T12:28:14.935Z,669.38
2023-04-27T12:29:14.907Z,624.38
2023-04-27T12:30:14.899Z,388.12
2023-04-27T12:31:14.912Z,680.62
2023-04-27T12:32:14.882Z,421.88
2023-04-27T12:33:14.927Z,326.25
2023-04-27T12:34:15.120Z,298.12
2023-04-27T12:35:14.846Z,281.25
2023-04-27T12:36:14.840Z,382.50
2023-04-27T12:37:14.823Z,247.50
2023-04-27T12:38:14.829Z,241.88
2023-04-27T12:39:14.826Z,247.50
2023-04-27T12:40:14.796Z,303.75
2023-04-27T12:41:14.786Z,320.62
2023-04-27T12:42:46.756Z,303.75
2023-04-27T12:43:14.785Z,253.12
2023-04-27T12:44:15.150Z,253.12
2023-04-27T12:45:14.744Z,264.38
2023-04-27T12:46:14.776Z,275.62
2023-04-27T12:47:27.887Z,382.50
2023-04-27T12:48:17.662Z,534.38